Aurora, CO (80044)

8:30 PM MDT on April 20, 2015 (GMT -0600)
North Aurora / Fitzsimmons | | Change Station
CLOSE
Current Station
Personal Weather Station
Location: Aurora, CO
Elevation: 5364 ft
Nearby Weather Stations

Elev 5364 ft 39.75 °N, 104.85 °W | Updated 11 seconds ago

Mostly Cloudy
Mostly Cloudy
48.8 °F
Feels Like 49 °F
N
0.0
Wind Variable Wind from North
Gusts 0.0 mph

Today
High -- | Low -- °F
--% Chance of Precip.
Yesterday
High -- | Low -- °F
Precip. -- in
6:14 AM 7:42 PM
Waxing Crescent, 7% visible
Pressure 29.92 in
Visibility 10.0 miles
Clouds Few 4000 ft
Mostly Cloudy 7000 ft
Mostly Cloudy 11000 ft
Mostly Cloudy 20000 ft
Windchill 49 °F
Dew Point 33 °F
Humidity 55%
Rainfall 0.00 in
Snow Depth Not available.
UV 0 out of 12
Pollen 9.60 out of 12
Air Quality Not available.
Flu Activity Local Activity
METAR KBKF 210158Z 16005KT 10SM FEW040 BKN070 BKN110 BKN200 08/01 A2996 RMK AO2A RAB22E58 SLP132 P0000 T00770011

More Conditions Fewer Conditions

Pressure 29.92 in
Visibility 10.0 miles
Clouds Few 4000 ft
Mostly Cloudy 7000 ft
Mostly Cloudy 11000 ft
Mostly Cloudy 20000 ft
Windchill 49 °F
Dew Point 33 °F
Humidity 55%
Rainfall 0.00 in
Snow Depth Not available.
UV 0 out of 12
Pollen 9.60 out of 12
Air Quality Not available.
Flu Activity Local Activity
METAR KBKF 210158Z 16005KT 10SM FEW040 BKN070 BKN110 BKN200 08/01 A2996 RMK AO2A RAB22E58 SLP132 P0000 T00770011

More Conditions Fewer Conditions

10-Day Weather Forecast

Almanac

Astronomy

Apr. 20, 2015 Rise Set
Actual Time
Civil Twilight
Nautical Twilight
Astronomical Twilight
Moon
Length of Visible Light
Length of Day
Tomorrow will be .
, % of the Moon is Illuminated

Today's Extremes

State Highs State Lows

Community

WunderPhotos

Upload Photos

1,815,283 photos uploaded!

WunderBlogs® & News

Nearby

Air Quality

  Air Quality AQ Index Pollutant
Not available.

Snow Depth

Station Depth Elevation

Earthquake Activity

City Distance Mag. Time & Date
Minimum magnitude displayed is 2.5.

Coastal Water Temperatures

Place Temperature

Stations

Nearby Weather Stations

Station Location Temp. Windchill Dew Point Humidity Wind Precip. Elev Updated Type